St. Joseph, MO

11:20 AM CDT on June 26, 2017 (GMT -0500)
Rosecrans Memorial | | Change Station

Elev 823 ft 39.77 °N, 94.91 °W | Updated 1 hour ago

Rain
Rain Mist
59 °F
Feels Like 59 °F
N
8
Wind Variable Wind from NNE

Today
High -- | Low -- °F
--% Chance of Precip.
Yesterday
High -- | Low -- °F
Precip. -- in
Pressure 30.28 in
Visibility 4.0 miles
Clouds Overcast 6500 ft
Dew Point 57 °F
Humidity 93%
Rainfall 0.31 in
Snow Depth Not available.
5:53 AM 8:51 PM
Waxing Crescent, 9% visible
SPECI KSTJ 261515Z 02007KT 4SM RA BR OVC065 15/14 A3028 RMK AO2 LTG DSNT SW AND W RAB00 TSB1454E09 PRESRR P0004 T01500139
Pressure 30.28 in
Visibility 4.0 miles
Clouds Overcast 6500 ft
Dew Point 57 °F
Humidity 93%
Rainfall 0.31 in
Snow Depth Not available.
5:53 AM 8:51 PM
Waxing Crescent, 9% visible
SPECI KSTJ 261515Z 02007KT 4SM RA BR OVC065 15/14 A3028 RMK AO2 LTG DSNT SW AND W RAB00 TSB1454E09 PRESRR P0004 T01500139

Get Severe Weather Alerts

Thanks for signing up!

Be on the lookout for a verification email in your inbox.

You'll start receiving the daily forecast at 6 AM.

×

10-Day Weather Forecast

Almanac

Astronomy

Jun. 26, 2017 Rise Set
Actual Time
Civil Twilight
Nautical Twilight
Astronomical Twilight
Moon
Length of Visible Light
Length of Day
Tomorrow will be .
, % of the Moon is Illuminated

Today's Extremes

State Highs State Lows

Community

WunderPhotos

Category 6

Welcome to Category 6. This is the collective home for Weather Underground's featured writeups by Dr. Jeff Masters (right), Bob Henson (left), Chris Burt, and other regular contributors.

Nearby

Air Quality

  Air Quality AQ Index Pollutant
Not available.

Snow Depth

Station Depth Elevation

Earthquake Activity

City Distance Mag. Time & Date
Minimum magnitude displayed is 2.5.

Coastal Water Temperatures

Place Temperature

Stations

Nearby Weather Stations

Station Location Temp. Windchill Dew Point Humidity Wind Precip. Elev Updated Type
                   

Watches & Warnings

There are currently no watches in effect.